sensor_id;sensor_type;location;lat;lon;timestamp;temperature;humidity
61201;DHT22;47065;52.898;6.992;2023-03-04T00:01:39;5.80;99.90
61201;DHT22;47065;52.898;6.992;2023-03-04T00:04:04;5.80;99.90
61201;DHT22;47065;52.898;6.992;2023-03-04T00:06:30;5.80;99.90
61201;DHT22;47065;52.898;6.992;2023-03-04T00:08:56;5.80;99.90
61201;DHT22;47065;52.898;6.992;2023-03-04T00:11:22;5.80;99.90
61201;DHT22;47065;52.898;6.992;2023-03-04T00:13:48;5.80;99.90
61201;DHT22;47065;52.898;6.992;2023-03-04T00:16:13;5.80;99.90
61201;DHT22;47065;52.898;6.992;2023-03-04T00:18:39;5.80;99.90
61201;DHT22;47065;52.898;6.992;2023-03-04T00:21:04;5.80;99.90
61201;DHT22;47065;52.898;6.992;2023-03-04T00:23:30;5.80;99.90
61201;DHT22;47065;52.898;6.992;2023-03-04T00:25:56;5.80;99.90
61201;DHT22;47065;52.898;6.992;2023-03-04T00:28:22;5.80;99.90
61201;DHT22;47065;52.898;6.992;2023-03-04T00:30:48;5.80;99.90
61201;DHT22;47065;52.898;6.992;2023-03-04T00:33:13;5.80;99.90
61201;DHT22;47065;52.898;6.992;2023-03-04T00:35:39;5.80;99.90
61201;DHT22;47065;52.898;6.992;2023-03-04T00:38:05;5.80;99.90
61201;DHT22;47065;52.898;6.992;2023-03-04T00:40:31;5.80;99.90
61201;DHT22;47065;52.898;6.992;2023-03-04T00:42:56;5.80;99.90
61201;DHT22;47065;52.898;6.992;2023-03-04T00:45:22;5.80;99.90
61201;DHT22;47065;52.898;6.992;2023-03-04T00:47:47;5.70;99.90
61201;DHT22;47065;52.898;6.992;2023-03-04T00:50:13;5.70;99.90
61201;DHT22;47065;52.898;6.992;2023-03-04T00:52:39;5.70;99.90
61201;DHT22;47065;52.898;6.992;2023-03-04T00:55:05;5.70;99.90
61201;DHT22;47065;52.898;6.992;2023-03-04T00:57:31;5.70;99.90
61201;DHT22;47065;52.898;6.992;2023-03-04T00:59:56;5.70;99.90
61201;DHT22;47065;52.898;6.992;2023-03-04T01:02:22;5.70;99.90
61201;DHT22;47065;52.898;6.992;2023-03-04T01:04:48;5.70;99.90
61201;DHT22;47065;52.898;6.992;2023-03-04T01:07:13;5.70;99.90
61201;DHT22;47065;52.898;6.992;2023-03-04T01:09:39;5.70;99.90
61201;DHT22;47065;52.898;6.992;2023-03-04T01:12:05;5.70;99.90
61201;DHT22;47065;52.898;6.992;2023-03-04T01:14:30;5.70;99.90
61201;DHT22;47065;52.898;6.992;2023-03-04T01:16:56;5.70;99.90
61201;DHT22;47065;52.898;6.992;2023-03-04T01:19:22;5.70;99.90
61201;DHT22;47065;52.898;6.992;2023-03-04T01:21:47;5.70;99.90
61201;DHT22;47065;52.898;6.992;2023-03-04T01:24:13;5.70;99.90
61201;DHT22;47065;52.898;6.992;2023-03-04T01:26:39;5.70;99.90
61201;DHT22;47065;52.898;6.992;2023-03-04T01:29:04;5.70;99.90
61201;DHT22;47065;52.898;6.992;2023-03-04T01:31:30;5.70;99.90
61201;DHT22;47065;52.898;6.992;2023-03-04T01:33:55;5.70;99.90
61201;DHT22;47065;52.898;6.992;2023-03-04T01:36:21;5.70;99.90
61201;DHT22;47065;52.898;6.992;2023-03-04T01:38:47;5.70;99.90
61201;DHT22;47065;52.898;6.992;2023-03-04T01:41:13;5.70;99.90
61201;DHT22;47065;52.898;6.992;2023-03-04T01:43:42;5.70;99.90
61201;DHT22;47065;52.898;6.992;2023-03-04T01:46:10;5.70;99.90
61201;DHT22;47065;52.898;6.992;2023-03-04T01:48:39;5.70;99.90
61201;DHT22;47065;52.898;6.992;2023-03-04T01:51:10;5.70;99.90
61201;DHT22;47065;52.898;6.992;2023-03-04T01:53:37;5.70;99.90
61201;DHT22;47065;52.898;6.992;2023-03-04T01:59:20;5.70;99.90
61201;DHT22;47065;52.898;6.992;2023-03-04T02:01:49;5.70;99.90
61201;DHT22;47065;52.898;6.992;2023-03-04T02:04:16;5.60;99.90
61201;DHT22;47065;52.898;6.992;2023-03-04T02:06:43;5.60;99.90
61201;DHT22;47065;52.898;6.992;2023-03-04T02:09:09;5.60;99.90
61201;DHT22;47065;52.898;6.992;2023-03-04T02:11:37;5.60;99.90
61201;DHT22;47065;52.898;6.992;2023-03-04T02:14:03;5.60;99.90
61201;DHT22;47065;52.898;6.992;2023-03-04T02:16:30;5.60;99.90
61201;DHT22;47065;52.898;6.992;2023-03-04T02:18:56;5.60;99.90
61201;DHT22;47065;52.898;6.992;2023-03-04T02:21:30;5.60;99.90
61201;DHT22;47065;52.898;6.992;2023-03-04T02:24:14;5.60;99.90
61201;DHT22;47065;52.898;6.992;2023-03-04T02:26:42;5.60;99.90
61201;DHT22;47065;52.898;6.992;2023-03-04T02:29:10;5.60;99.90
61201;DHT22;47065;52.898;6.992;2023-03-04T02:31:40;5.60;99.90
61201;DHT22;47065;52.898;6.992;2023-03-04T02:34:14;5.60;99.90
61201;DHT22;47065;52.898;6.992;2023-03-04T02:36:41;5.60;99.90
61201;DHT22;47065;52.898;6.992;2023-03-04T02:41:46;5.60;99.90
61201;DHT22;47065;52.898;6.992;2023-03-04T02:44:18;5.50;99.90
61201;DHT22;47065;52.898;6.992;2023-03-04T02:46:45;5.60;99.90
61201;DHT22;47065;52.898;6.992;2023-03-04T02:49:11;5.60;99.90
61201;DHT22;47065;52.898;6.992;2023-03-04T02:51:37;5.60;99.90
61201;DHT22;47065;52.898;6.992;2023-03-04T02:54:03;5.50;99.90
61201;DHT22;47065;52.898;6.992;2023-03-04T02:56:28;5.50;99.90
61201;DHT22;47065;52.898;6.992;2023-03-04T02:58:54;5.50;99.90
61201;DHT22;47065;52.898;6.992;2023-03-04T03:01:20;5.50;99.90
61201;DHT22;47065;52.898;6.992;2023-03-04T03:03:46;5.50;99.90
61201;DHT22;47065;52.898;6.992;2023-03-04T03:06:11;5.50;99.90
61201;DHT22;47065;52.898;6.992;2023-03-04T03:08:37;5.50;99.90
61201;DHT22;47065;52.898;6.992;2023-03-04T03:11:03;5.50;99.90
61201;DHT22;47065;52.898;6.992;2023-03-04T03:13:29;5.50;99.90
61201;DHT22;47065;52.898;6.992;2023-03-04T03:15:54;5.50;99.90
61201;DHT22;47065;52.898;6.992;2023-03-04T03:18:20;5.50;99.90
61201;DHT22;47065;52.898;6.992;2023-03-04T03:20:45;5.40;99.90
61201;DHT22;47065;52.898;6.992;2023-03-04T03:23:11;5.40;99.90
61201;DHT22;47065;52.898;6.992;2023-03-04T03:25:37;5.40;99.90
61201;DHT22;47065;52.898;6.992;2023-03-04T03:28:03;5.40;99.90
61201;DHT22;47065;52.898;6.992;2023-03-04T03:30:29;5.40;99.90
61201;DHT22;47065;52.898;6.992;2023-03-04T03:32:54;5.40;99.90
61201;DHT22;47065;52.898;6.992;2023-03-04T03:35:20;5.40;99.90
61201;DHT22;47065;52.898;6.992;2023-03-04T03:37:46;5.30;99.90
61201;DHT22;47065;52.898;6.992;2023-03-04T03:40:13;5.40;99.90
61201;DHT22;47065;52.898;6.992;2023-03-04T03:42:39;5.30;99.90
61201;DHT22;47065;52.898;6.992;2023-03-04T03:45:05;5.30;99.90
61201;DHT22;47065;52.898;6.992;2023-03-04T03:47:31;5.30;99.90
61201;DHT22;47065;52.898;6.992;2023-03-04T03:49:57;5.30;99.90
61201;DHT22;47065;52.898;6.992;2023-03-04T03:52:22;5.30;99.90
61201;DHT22;47065;52.898;6.992;2023-03-04T03:54:48;5.30;99.90
61201;DHT22;47065;52.898;6.992;2023-03-04T03:57:14;5.30;99.90
61201;DHT22;47065;52.898;6.992;2023-03-04T03:59:39;5.30;99.90
61201;DHT22;47065;52.898;6.992;2023-03-04T04:02:05;5.30;99.90
61201;DHT22;47065;52.898;6.992;2023-03-04T04:04:31;5.30;99.90
61201;DHT22;47065;52.898;6.992;2023-03-04T04:06:57;5.30;99.90
61201;DHT22;47065;52.898;6.992;2023-03-04T04:09:22;5.30;99.90
61201;DHT22;47065;52.898;6.992;2023-03-04T04:11:48;5.30;99.90
61201;DHT22;47065;52.898;6.992;2023-03-04T04:14:14;5.30;99.90
61201;DHT22;47065;52.898;6.992;2023-03-04T04:16:39;5.30;99.90
61201;DHT22;47065;52.898;6.992;2023-03-04T04:19:05;5.30;99.90
61201;DHT22;47065;52.898;6.992;2023-03-04T04:21:31;5.30;99.90
61201;DHT22;47065;52.898;6.992;2023-03-04T04:23:56;5.30;99.90
61201;DHT22;47065;52.898;6.992;2023-03-04T04:26:22;5.30;99.90
61201;DHT22;47065;52.898;6.992;2023-03-04T04:28:48;5.30;99.90
61201;DHT22;47065;52.898;6.992;2023-03-04T04:31:14;5.30;99.90
61201;DHT22;47065;52.898;6.992;2023-03-04T04:33:39;5.30;99.90
61201;DHT22;47065;52.898;6.992;2023-03-04T04:36:05;5.30;99.90
61201;DHT22;47065;52.898;6.992;2023-03-04T04:38:31;5.30;99.90
61201;DHT22;47065;52.898;6.992;2023-03-04T04:40:58;5.30;99.90
61201;DHT22;47065;52.898;6.992;2023-03-04T04:43:24;5.30;99.90
61201;DHT22;47065;52.898;6.992;2023-03-04T04:45:50;5.30;99.90
61201;DHT22;47065;52.898;6.992;2023-03-04T04:48:16;5.30;99.90
61201;DHT22;47065;52.898;6.992;2023-03-04T04:50:41;5.30;99.90
61201;DHT22;47065;52.898;6.992;2023-03-04T04:53:07;5.30;99.90
61201;DHT22;47065;52.898;6.992;2023-03-04T04:55:34;5.30;99.90
61201;DHT22;47065;52.898;6.992;2023-03-04T04:58:00;5.30;99.90
61201;DHT22;47065;52.898;6.992;2023-03-04T05:00:25;5.30;99.90
61201;DHT22;47065;52.898;6.992;2023-03-04T05:02:51;5.30;99.90
61201;DHT22;47065;52.898;6.992;2023-03-04T05:05:17;5.30;99.90
61201;DHT22;47065;52.898;6.992;2023-03-04T05:07:42;5.20;99.90
61201;DHT22;47065;52.898;6.992;2023-03-04T05:10:09;5.20;99.90
61201;DHT22;47065;52.898;6.992;2023-03-04T05:12:34;5.20;99.90
61201;DHT22;47065;52.898;6.992;2023-03-04T05:15:00;5.20;99.90
61201;DHT22;47065;52.898;6.992;2023-03-04T05:17:26;5.20;99.90
61201;DHT22;47065;52.898;6.992;2023-03-04T05:19:51;5.20;99.90
61201;DHT22;47065;52.898;6.992;2023-03-04T05:22:17;5.20;99.90
61201;DHT22;47065;52.898;6.992;2023-03-04T05:24:43;5.10;99.90
61201;DHT22;47065;52.898;6.992;2023-03-04T05:27:08;5.10;99.90
61201;DHT22;47065;52.898;6.992;2023-03-04T05:29:34;5.10;99.90
61201;DHT22;47065;52.898;6.992;2023-03-04T05:32:00;5.20;99.90
61201;DHT22;47065;52.898;6.992;2023-03-04T05:34:25;5.10;99.90
61201;DHT22;47065;52.898;6.992;2023-03-04T05:36:51;5.10;99.90
61201;DHT22;47065;52.898;6.992;2023-03-04T05:39:16;5.10;99.90
61201;DHT22;47065;52.898;6.992;2023-03-04T05:41:42;5.10;99.90
61201;DHT22;47065;52.898;6.992;2023-03-04T05:44:08;5.10;99.90
61201;DHT22;47065;52.898;6.992;2023-03-04T05:46:33;5.10;99.90
61201;DHT22;47065;52.898;6.992;2023-03-04T05:48:59;5.00;99.90
61201;DHT22;47065;52.898;6.992;2023-03-04T05:51:25;5.00;99.90
61201;DHT22;47065;52.898;6.992;2023-03-04T05:53:50;5.00;99.90
61201;DHT22;47065;52.898;6.992;2023-03-04T05:56:18;5.00;99.90
61201;DHT22;47065;52.898;6.992;2023-03-04T05:58:44;5.00;99.90
61201;DHT22;47065;52.898;6.992;2023-03-04T06:01:12;5.00;99.90
61201;DHT22;47065;52.898;6.992;2023-03-04T06:03:37;5.00;99.90
61201;DHT22;47065;52.898;6.992;2023-03-04T06:06:04;5.00;99.90
61201;DHT22;47065;52.898;6.992;2023-03-04T06:08:29;4.90;99.90
61201;DHT22;47065;52.898;6.992;2023-03-04T06:10:56;5.00;99.90
61201;DHT22;47065;52.898;6.992;2023-03-04T06:13:22;5.00;99.90
61201;DHT22;47065;52.898;6.992;2023-03-04T06:15:53;4.90;99.90
61201;DHT22;47065;52.898;6.992;2023-03-04T06:18:19;4.90;99.90
61201;DHT22;47065;52.898;6.992;2023-03-04T06:20:45;4.90;99.90
61201;DHT22;47065;52.898;6.992;2023-03-04T06:23:10;4.90;99.90
61201;DHT22;47065;52.898;6.992;2023-03-04T06:25:36;4.90;99.90
61201;DHT22;47065;52.898;6.992;2023-03-04T06:28:02;4.90;99.90
61201;DHT22;47065;52.898;6.992;2023-03-04T06:30:28;4.90;99.90
61201;DHT22;47065;52.898;6.992;2023-03-04T06:32:53;4.90;99.90
61201;DHT22;47065;52.898;6.992;2023-03-04T06:35:19;4.90;99.90
61201;DHT22;47065;52.898;6.992;2023-03-04T06:37:45;4.90;99.90
61201;DHT22;47065;52.898;6.992;2023-03-04T06:40:11;4.90;99.90
61201;DHT22;47065;52.898;6.992;2023-03-04T06:42:37;5.00;99.90
61201;DHT22;47065;52.898;6.992;2023-03-04T06:45:05;5.00;99.90
61201;DHT22;47065;52.898;6.992;2023-03-04T06:47:31;5.00;99.90
61201;DHT22;47065;52.898;6.992;2023-03-04T06:49:56;5.00;99.90
61201;DHT22;47065;52.898;6.992;2023-03-04T06:52:22;5.00;99.90
61201;DHT22;47065;52.898;6.992;2023-03-04T06:54:48;5.10;99.90
61201;DHT22;47065;52.898;6.992;2023-03-04T06:57:13;5.10;99.90
61201;DHT22;47065;52.898;6.992;2023-03-04T06:59:39;5.10;99.90
61201;DHT22;47065;52.898;6.992;2023-03-04T07:02:05;5.10;99.90
61201;DHT22;47065;52.898;6.992;2023-03-04T07:04:31;5.20;99.90
61201;DHT22;47065;52.898;6.992;2023-03-04T07:06:57;5.20;99.90
61201;DHT22;47065;52.898;6.992;2023-03-04T07:09:23;5.20;99.90
61201;DHT22;47065;52.898;6.992;2023-03-04T07:11:48;5.20;99.90
61201;DHT22;47065;52.898;6.992;2023-03-04T07:14:14;5.30;99.90
61201;DHT22;47065;52.898;6.992;2023-03-04T07:16:40;5.30;99.90
61201;DHT22;47065;52.898;6.992;2023-03-04T07:19:06;5.30;99.90
61201;DHT22;47065;52.898;6.992;2023-03-04T07:21:31;5.30;99.90
61201;DHT22;47065;52.898;6.992;2023-03-04T07:23:57;5.30;99.90
61201;DHT22;47065;52.898;6.992;2023-03-04T07:26:23;5.40;99.90
61201;DHT22;47065;52.898;6.992;2023-03-04T07:28:48;5.40;99.90
61201;DHT22;47065;52.898;6.992;2023-03-04T07:31:42;5.40;99.90
61201;DHT22;47065;52.898;6.992;2023-03-04T07:34:12;5.50;99.90
61201;DHT22;47065;52.898;6.992;2023-03-04T07:36:38;5.50;99.90
61201;DHT22;47065;52.898;6.992;2023-03-04T07:39:04;5.50;99.90
61201;DHT22;47065;52.898;6.992;2023-03-04T07:41:29;5.60;99.90
61201;DHT22;47065;52.898;6.992;2023-03-04T07:43:56;5.60;99.90
61201;DHT22;47065;52.898;6.992;2023-03-04T07:46:22;5.60;99.90
61201;DHT22;47065;52.898;6.992;2023-03-04T07:48:48;5.60;99.90
61201;DHT22;47065;52.898;6.992;2023-03-04T07:51:16;5.60;99.90
61201;DHT22;47065;52.898;6.992;2023-03-04T07:53:44;5.70;99.90
61201;DHT22;47065;52.898;6.992;2023-03-04T07:56:16;5.70;99.90
61201;DHT22;47065;52.898;6.992;2023-03-04T07:58:42;5.70;99.90
61201;DHT22;47065;52.898;6.992;2023-03-04T08:01:10;5.70;99.90
61201;DHT22;47065;52.898;6.992;2023-03-04T08:03:36;5.80;99.90
61201;DHT22;47065;52.898;6.992;2023-03-04T08:06:07;5.70;99.90
61201;DHT22;47065;52.898;6.992;2023-03-04T08:08:34;5.70;99.90
61201;DHT22;47065;52.898;6.992;2023-03-04T08:11:02;5.80;99.90
61201;DHT22;47065;52.898;6.992;2023-03-04T08:13:28;5.80;99.90
61201;DHT22;47065;52.898;6.992;2023-03-04T08:15:55;5.80;99.90
61201;DHT22;47065;52.898;6.992;2023-03-04T08:18:21;5.80;99.90
61201;DHT22;47065;52.898;6.992;2023-03-04T08:20:46;5.80;99.90
61201;DHT22;47065;52.898;6.992;2023-03-04T08:23:12;5.80;99.90
61201;DHT22;47065;52.898;6.992;2023-03-04T08:25:39;5.90;99.90
61201;DHT22;47065;52.898;6.992;2023-03-04T08:28:06;5.90;99.90
61201;DHT22;47065;52.898;6.992;2023-03-04T08:30:31;5.90;99.90
61201;DHT22;47065;52.898;6.992;2023-03-04T08:32:58;5.90;99.90
61201;DHT22;47065;52.898;6.992;2023-03-04T08:35:25;5.90;99.90
61201;DHT22;47065;52.898;6.992;2023-03-04T08:37:50;5.90;99.90
61201;DHT22;47065;52.898;6.992;2023-03-04T08:40:16;5.90;99.90
61201;DHT22;47065;52.898;6.992;2023-03-04T08:42:42;6.00;99.90
61201;DHT22;47065;52.898;6.992;2023-03-04T08:45:08;6.00;99.90
61201;DHT22;47065;52.898;6.992;2023-03-04T08:47:34;6.00;99.90
61201;DHT22;47065;52.898;6.992;2023-03-04T08:50:00;6.10;99.90
61201;DHT22;47065;52.898;6.992;2023-03-04T08:52:27;6.10;99.90
61201;DHT22;47065;52.898;6.992;2023-03-04T08:54:53;6.10;99.90
61201;DHT22;47065;52.898;6.992;2023-03-04T08:57:18;6.10;99.90
61201;DHT22;47065;52.898;6.992;2023-03-04T08:59:44;6.10;99.90
61201;DHT22;47065;52.898;6.992;2023-03-04T09:02:09;6.10;99.90
61201;DHT22;47065;52.898;6.992;2023-03-04T09:04:35;6.20;99.90
61201;DHT22;47065;52.898;6.992;2023-03-04T09:07:01;6.20;99.90
61201;DHT22;47065;52.898;6.992;2023-03-04T09:09:26;6.20;99.90
61201;DHT22;47065;52.898;6.992;2023-03-04T09:11:52;6.20;99.90
61201;DHT22;47065;52.898;6.992;2023-03-04T09:14:18;6.20;99.90
61201;DHT22;47065;52.898;6.992;2023-03-04T09:16:44;6.30;99.90
61201;DHT22;47065;52.898;6.992;2023-03-04T09:19:09;6.40;99.90
61201;DHT22;47065;52.898;6.992;2023-03-04T09:21:35;6.50;99.90
61201;DHT22;47065;52.898;6.992;2023-03-04T09:24:01;6.50;99.90
61201;DHT22;47065;52.898;6.992;2023-03-04T09:26:28;6.50;99.90
61201;DHT22;47065;52.898;6.992;2023-03-04T09:28:59;6.60;99.90
61201;DHT22;47065;52.898;6.992;2023-03-04T09:31:27;6.60;99.90
61201;DHT22;47065;52.898;6.992;2023-03-04T09:33:53;6.60;99.90
61201;DHT22;47065;52.898;6.992;2023-03-04T09:36:20;6.60;99.90
61201;DHT22;47065;52.898;6.992;2023-03-04T09:38:46;6.60;99.90
61201;DHT22;47065;52.898;6.992;2023-03-04T09:41:35;6.60;99.90
61201;DHT22;47065;52.898;6.992;2023-03-04T09:44:04;6.60;99.90
61201;DHT22;47065;52.898;6.992;2023-03-04T09:46:35;6.60;99.90
61201;DHT22;47065;52.898;6.992;2023-03-04T09:49:02;6.60;99.90
61201;DHT22;47065;52.898;6.992;2023-03-04T09:57:26;6.50;99.90
61201;DHT22;47065;52.898;6.992;2023-03-04T10:00:09;6.40;99.90
61201;DHT22;47065;52.898;6.992;2023-03-04T10:05:23;6.40;99.90
61201;DHT22;47065;52.898;6.992;2023-03-04T10:08:16;6.50;99.90
61201;DHT22;47065;52.898;6.992;2023-03-04T10:10:44;6.60;99.90
61201;DHT22;47065;52.898;6.992;2023-03-04T10:13:16;6.60;99.90
61201;DHT22;47065;52.898;6.992;2023-03-04T10:15:47;6.70;99.90
61201;DHT22;47065;52.898;6.992;2023-03-04T10:18:27;6.80;99.90
61201;DHT22;47065;52.898;6.992;2023-03-04T10:21:10;6.70;99.90
61201;DHT22;47065;52.898;6.992;2023-03-04T10:23:39;6.70;99.90
61201;DHT22;47065;52.898;6.992;2023-03-04T10:26:13;6.60;99.90
61201;DHT22;47065;52.898;6.992;2023-03-04T10:28:40;6.60;99.90
61201;DHT22;47065;52.898;6.992;2023-03-04T10:31:35;6.60;99.90
61201;DHT22;47065;52.898;6.992;2023-03-04T10:34:05;6.50;99.90
61201;DHT22;47065;52.898;6.992;2023-03-04T10:39:00;6.70;99.90
61201;DHT22;47065;52.898;6.992;2023-03-04T10:41:28;6.70;99.90
61201;DHT22;47065;52.898;6.992;2023-03-04T10:46:41;6.90;99.90
61201;DHT22;47065;52.898;6.992;2023-03-04T10:49:09;7.00;99.90
61201;DHT22;47065;52.898;6.992;2023-03-04T10:51:45;7.30;99.90
61201;DHT22;47065;52.898;6.992;2023-03-04T10:54:40;7.60;99.90
61201;DHT22;47065;52.898;6.992;2023-03-04T10:57:17;7.80;99.90
61201;DHT22;47065;52.898;6.992;2023-03-04T10:59:48;7.70;99.90
61201;DHT22;47065;52.898;6.992;2023-03-04T11:02:26;7.40;99.90
61201;DHT22;47065;52.898;6.992;2023-03-04T11:10:15;6.80;99.90
61201;DHT22;47065;52.898;6.992;2023-03-04T11:12:41;6.70;99.90
61201;DHT22;47065;52.898;6.992;2023-03-04T11:15:21;6.60;99.90
61201;DHT22;47065;52.898;6.992;2023-03-04T11:17:55;6.60;99.90
61201;DHT22;47065;52.898;6.992;2023-03-04T11:20:38;6.70;99.90
61201;DHT22;47065;52.898;6.992;2023-03-04T11:23:11;6.80;99.90
61201;DHT22;47065;52.898;6.992;2023-03-04T11:26:04;6.90;99.90
61201;DHT22;47065;52.898;6.992;2023-03-04T11:29:01;7.00;99.90
61201;DHT22;47065;52.898;6.992;2023-03-04T11:34:50;7.60;99.90
61201;DHT22;47065;52.898;6.992;2023-03-04T11:37:35;7.80;99.90
61201;DHT22;47065;52.898;6.992;2023-03-04T11:40:12;7.90;99.90
61201;DHT22;47065;52.898;6.992;2023-03-04T11:43:13;8.00;99.90
61201;DHT22;47065;52.898;6.992;2023-03-04T11:51:27;8.00;99.90
61201;DHT22;47065;52.898;6.992;2023-03-04T11:57:05;7.80;99.90
61201;DHT22;47065;52.898;6.992;2023-03-04T11:59:52;7.90;99.90
61201;DHT22;47065;52.898;6.992;2023-03-04T12:02:34;8.00;99.90
61201;DHT22;47065;52.898;6.992;2023-03-04T12:08:20;8.30;99.90
61201;DHT22;47065;52.898;6.992;2023-03-04T12:11:02;8.30;99.90
61201;DHT22;47065;52.898;6.992;2023-03-04T12:30:33;8.00;99.90
61201;DHT22;47065;52.898;6.992;2023-03-04T12:33:11;7.90;99.90
61201;DHT22;47065;52.898;6.992;2023-03-04T12:35:41;7.80;99.90
61201;DHT22;47065;52.898;6.992;2023-03-04T12:44:15;6.90;99.90
61201;DHT22;47065;52.898;6.992;2023-03-04T12:54:54;6.40;99.90
61201;DHT22;47065;52.898;6.992;2023-03-04T12:57:26;6.30;99.90
61201;DHT22;47065;52.898;6.992;2023-03-04T13:06:03;6.60;99.90
61201;DHT22;47065;52.898;6.992;2023-03-04T13:08:58;6.80;99.90
61201;DHT22;47065;52.898;6.992;2023-03-04T13:16:53;7.30;99.90
61201;DHT22;47065;52.898;6.992;2023-03-04T13:19:48;7.20;99.90
61201;DHT22;47065;52.898;6.992;2023-03-04T13:26:07;7.10;99.90
61201;DHT22;47065;52.898;6.992;2023-03-04T13:28:35;7.00;99.90
61201;DHT22;47065;52.898;6.992;2023-03-04T13:31:21;7.00;99.90
61201;DHT22;47065;52.898;6.992;2023-03-04T13:33:51;7.10;99.90
61201;DHT22;47065;52.898;6.992;2023-03-04T13:36:32;7.10;99.90
61201;DHT22;47065;52.898;6.992;2023-03-04T13:39:22;7.10;99.90
61201;DHT22;47065;52.898;6.992;2023-03-04T13:41:50;7.00;99.90
61201;DHT22;47065;52.898;6.992;2023-03-04T13:44:56;6.90;99.90
61201;DHT22;47065;52.898;6.992;2023-03-04T13:47:29;6.80;99.90
61201;DHT22;47065;52.898;6.992;2023-03-04T13:53:29;6.80;99.90
61201;DHT22;47065;52.898;6.992;2023-03-04T14:04:18;6.50;99.90
61201;DHT22;47065;52.898;6.992;2023-03-04T14:06:48;6.50;99.90
61201;DHT22;47065;52.898;6.992;2023-03-04T14:09:34;6.50;99.90
61201;DHT22;47065;52.898;6.992;2023-03-04T14:12:03;6.50;99.90
61201;DHT22;47065;52.898;6.992;2023-03-04T14:14:46;6.60;99.90
61201;DHT22;47065;52.898;6.992;2023-03-04T14:17:26;6.70;99.90
61201;DHT22;47065;52.898;6.992;2023-03-04T14:19:52;6.80;99.90
61201;DHT22;47065;52.898;6.992;2023-03-04T14:22:25;6.90;99.90
61201;DHT22;47065;52.898;6.992;2023-03-04T14:27:21;6.70;99.90
61201;DHT22;47065;52.898;6.992;2023-03-04T14:29:57;6.60;99.90
61201;DHT22;47065;52.898;6.992;2023-03-04T14:32:24;6.40;99.90
61201;DHT22;47065;52.898;6.992;2023-03-04T14:34:55;6.30;99.90
61201;DHT22;47065;52.898;6.992;2023-03-04T14:37:25;6.20;99.90
61201;DHT22;47065;52.898;6.992;2023-03-04T14:39:55;6.20;99.90
61201;DHT22;47065;52.898;6.992;2023-03-04T14:42:24;6.20;99.90
61201;DHT22;47065;52.898;6.992;2023-03-04T14:44:54;6.20;99.90
61201;DHT22;47065;52.898;6.992;2023-03-04T14:47:35;6.30;99.90
61201;DHT22;47065;52.898;6.992;2023-03-04T14:50:17;6.40;99.90
61201;DHT22;47065;52.898;6.992;2023-03-04T14:52:47;6.50;99.90
61201;DHT22;47065;52.898;6.992;2023-03-04T14:57:39;6.50;99.90
61201;DHT22;47065;52.898;6.992;2023-03-04T15:02:57;6.60;99.90
61201;DHT22;47065;52.898;6.992;2023-03-04T15:07:57;6.60;99.90
61201;DHT22;47065;52.898;6.992;2023-03-04T15:10:34;6.60;99.90
61201;DHT22;47065;52.898;6.992;2023-03-04T15:13:03;6.60;99.90
61201;DHT22;47065;52.898;6.992;2023-03-04T15:18:20;6.60;99.90
61201;DHT22;47065;52.898;6.992;2023-03-04T15:21:05;6.50;99.90
61201;DHT22;47065;52.898;6.992;2023-03-04T15:23:31;6.50;99.90
61201;DHT22;47065;52.898;6.992;2023-03-04T15:26:00;6.40;99.90
61201;DHT22;47065;52.898;6.992;2023-03-04T15:28:33;6.30;99.90
61201;DHT22;47065;52.898;6.992;2023-03-04T15:30:59;6.30;99.90
61201;DHT22;47065;52.898;6.992;2023-03-04T15:33:24;6.30;99.90
61201;DHT22;47065;52.898;6.992;2023-03-04T15:35:58;6.30;99.90
61201;DHT22;47065;52.898;6.992;2023-03-04T15:38:26;6.40;99.90
61201;DHT22;47065;52.898;6.992;2023-03-04T15:40:53;6.30;99.90
61201;DHT22;47065;52.898;6.992;2023-03-04T15:43:20;6.20;99.90
61201;DHT22;47065;52.898;6.992;2023-03-04T15:45:48;6.20;99.90
61201;DHT22;47065;52.898;6.992;2023-03-04T15:48:15;6.10;99.90
61201;DHT22;47065;52.898;6.992;2023-03-04T15:50:52;6.10;99.90
61201;DHT22;47065;52.898;6.992;2023-03-04T15:53:35;6.00;99.90
61201;DHT22;47065;52.898;6.992;2023-03-04T15:56:03;6.00;99.90
61201;DHT22;47065;52.898;6.992;2023-03-04T15:58:29;6.00;99.90
61201;DHT22;47065;52.898;6.992;2023-03-04T16:00:56;6.00;99.90
61201;DHT22;47065;52.898;6.992;2023-03-04T16:03:22;6.00;99.90
61201;DHT22;47065;52.898;6.992;2023-03-04T16:05:50;5.90;99.90
61201;DHT22;47065;52.898;6.992;2023-03-04T16:08:19;5.90;99.90
61201;DHT22;47065;52.898;6.992;2023-03-04T16:10:45;5.90;99.90
61201;DHT22;47065;52.898;6.992;2023-03-04T16:13:13;5.90;99.90
61201;DHT22;47065;52.898;6.992;2023-03-04T16:15:40;5.80;99.90
61201;DHT22;47065;52.898;6.992;2023-03-04T16:18:09;5.70;99.90
61201;DHT22;47065;52.898;6.992;2023-03-04T16:20:36;5.60;99.90
61201;DHT22;47065;52.898;6.992;2023-03-04T16:23:03;5.50;99.90
61201;DHT22;47065;52.898;6.992;2023-03-04T16:25:29;5.50;99.90
61201;DHT22;47065;52.898;6.992;2023-03-04T16:27:56;5.40;99.90
61201;DHT22;47065;52.898;6.992;2023-03-04T16:30:25;5.30;99.90
61201;DHT22;47065;52.898;6.992;2023-03-04T16:32:51;5.30;99.90
61201;DHT22;47065;52.898;6.992;2023-03-04T16:35:18;5.30;99.90
61201;DHT22;47065;52.898;6.992;2023-03-04T16:37:45;5.30;99.90
61201;DHT22;47065;52.898;6.992;2023-03-04T16:40:13;5.30;99.90
61201;DHT22;47065;52.898;6.992;2023-03-04T16:42:40;5.30;99.90
61201;DHT22;47065;52.898;6.992;2023-03-04T16:45:17;5.30;99.90
61201;DHT22;47065;52.898;6.992;2023-03-04T16:47:43;5.20;99.90
61201;DHT22;47065;52.898;6.992;2023-03-04T16:50:16;5.20;99.90
61201;DHT22;47065;52.898;6.992;2023-03-04T16:52:44;5.10;99.90
61201;DHT22;47065;52.898;6.992;2023-03-04T16:55:19;5.00;99.90
61201;DHT22;47065;52.898;6.992;2023-03-04T16:57:46;5.00;99.90
61201;DHT22;47065;52.898;6.992;2023-03-04T17:00:13;4.90;99.90
61201;DHT22;47065;52.898;6.992;2023-03-04T17:02:39;4.80;99.90
61201;DHT22;47065;52.898;6.992;2023-03-04T17:05:06;4.70;99.90
61201;DHT22;47065;52.898;6.992;2023-03-04T17:07:31;4.70;99.90
61201;DHT22;47065;52.898;6.992;2023-03-04T17:09:57;4.70;99.90
61201;DHT22;47065;52.898;6.992;2023-03-04T17:12:23;4.60;99.90
61201;DHT22;47065;52.898;6.992;2023-03-04T17:14:49;4.60;99.90
61201;DHT22;47065;52.898;6.992;2023-03-04T17:17:14;4.60;99.90
61201;DHT22;47065;52.898;6.992;2023-03-04T17:19:40;4.60;99.90
61201;DHT22;47065;52.898;6.992;2023-03-04T17:22:07;4.60;99.90
61201;DHT22;47065;52.898;6.992;2023-03-04T17:24:33;4.60;99.90
61201;DHT22;47065;52.898;6.992;2023-03-04T17:26:58;4.60;99.90
61201;DHT22;47065;52.898;6.992;2023-03-04T17:29:24;4.60;99.90
61201;DHT22;47065;52.898;6.992;2023-03-04T17:31:50;4.60;99.90
61201;DHT22;47065;52.898;6.992;2023-03-04T17:34:17;4.60;99.90
61201;DHT22;47065;52.898;6.992;2023-03-04T17:36:43;4.60;99.90
61201;DHT22;47065;52.898;6.992;2023-03-04T17:39:10;4.60;99.90
61201;DHT22;47065;52.898;6.992;2023-03-04T17:41:35;4.60;99.90
61201;DHT22;47065;52.898;6.992;2023-03-04T17:44:01;4.60;99.90
61201;DHT22;47065;52.898;6.992;2023-03-04T17:46:27;4.60;99.90